Terminal Aerodrome Forecast
Issued by NWS Shreveport, LA

Home | Current Version | Previous Version | Text Only | Print | Product List | Glossary On
Versions: 1 2 3 4 5 6 7 8 9 10 11 12 13 14 15 16 17 18
000
FTUS44 KSHV 170036 RRA
TAFELD
TAF
KELD 170036Z 1701/1724 VRB04KT 5SM -TSRA BKN035CB OVC060
      TEMPO 1701/1703 VRB10G25KT 1SM TSRA BR OVC020CB
     FM170400 VRB05KT 3SM -TSRA BKN015CB OVC030
     FM170900 27004KT 5SM -RA BR OVC007
     FM171100 31004KT 3SM -RA BR OVC010
     FM172100 03005KT P6SM OVC015=

USA.gov is the U.S. government's official web portal to all federal, state and local government web resources and services.